| Date | Time | Temp. (oF) | Dew Point (oF) | Rel. Hum. (%) | Press. (in.) | Wind Dir. (deg.) | Wind Speed (mph) | Hourly Rainfall (i n.) |
|
|---|---|---|---|---|---|---|---|---|---|
| 1 | 12/06 | 24:00 | 52 | 44 | 75 | 30.05 | 230 | 1 | 0.00 |
| 2 | 12/05 | 23:00 | 52 | 43 | 72 | 30.06 | 110 | 2 | 0.00 |
| 3 | 12/05 | 22:00 | 52 | 43 | 73 | 30.07 | 170 | 9 | 0.00 |
| 4 | 12/05 | 21:00 | 50 | 42 | 76 | 30.09 | 150 | 2 | 0.00 |
| 5 | 12/05 | 20:00 | 48 | 39 | 73 | 30.08 | 120 | 0 | 0.00 |
| 6 | 12/05 | 19:00 | 49 | 39 | 70 | 30.09 | 120 | 0 | 0.00 |
| 7 | 12/05 | 18:00 | 51 | 40 | 66 | 30.10 | 120 | 0 | 0.00 |
| 8 | miss | miss | miss | miss | miss | miss | miss | miss | |
| 9 | 12/03 | 21:50 | 38 | 30 | 74 | 30.27 | 310 | 1 | 0.00 |
| 10 | miss | miss | miss | miss | miss | miss | miss | miss | |
| 11 | 12/03 | 21:48 | 39 | 31 | 74 | 30.27 | 310 | 1 | 0.00 |
| 12 | miss | miss | miss | miss | miss | miss | miss | miss | |
| 13 | 12/03 | 21:46 | 39 | 31 | 74 | 30.27 | 310 | 1 | 0.00 |
| 14 | miss | miss | miss | miss | miss | miss | miss | miss | |
| 15 | 12/03 | 21:44 | 39 | 31 | 74 | 30.27 | 310 | 1 | 0.00 |
| 16 | miss | miss | miss | miss | miss | miss | miss | miss | |
| 17 | 12/03 | 21:42 | 39 | 31 | 74 | 30.27 | 310 | 1 | 0.00 |
| 18 | miss | miss | miss | miss | miss | miss | miss | miss | |
| 19 | 12/03 | 21:40 | 39 | 31 | 74 | 30.27 | 310 | 0 | 0.00 |
| 20 | miss | miss | miss | miss | miss | miss | miss | miss | |
| 21 | 12/03 | 21:38 | 39 | 31 | 74 | 30.27 | 310 | 0 | 0.00 |
| 22 | miss | miss | miss | miss | miss | miss | miss | miss | |
| 23 | 12/03 | 21:36 | 39 | 31 | 74 | 30.27 | 310 | 0 | 0.00 |
| 24 | miss | miss | miss | miss | miss | miss | miss | miss | |
| 25 | 12/03 | 21:34 | 39 | 31 | 73 | 30.27 | 310 | 0 | 0.00 |
| 26 | miss | miss | miss | miss | miss | miss | miss | miss | |
| 27 | 12/03 | 21:34 | 39 | 31 | 73 | 30.27 | 310 | 0 | 0.00 |
| 28 | 12/03 | 21:00 | 40 | 32 | 74 | 30.27 | 310 | 0 | 0.00 |
| 29 | 12/03 | 20:00 | 38 | 29 | 72 | 30.28 | 310 | 0 | 0.00 |
| 30 | 12/03 | 19:00 | 40 | 30 | 68 | 30.30 | 310 | 0 | 0.00 |
| 31 | 12/03 | 18:00 | 44 | 31 | 62 | 30.30 | 310 | 0 | 0.00 |
| 32 | 12/03 | 17:00 | 47 | 32 | 58 | 30.30 | 310 | 0 | 0.00 |
| 33 | 12/03 | 16:00 | 52 | 32 | 48 | 30.30 | 310 | 0 | 0.00 |
| 34 | 12/03 | 15:00 | 54 | 30 | 41 | 30.30 | 310 | 0 | 0.00 |
| 35 | 12/03 | 14:00 | 55 | 28 | 36 | 30.29 | 310 | 0 | 0.00 |
| 36 | 12/03 | 13:00 | 53 | 26 | 36 | 30.27 | 310 | 0 | 0.00 |
| 37 | 12/03 | 12:00 | 50 | 26 | 40 | 30.28 | 310 | 2 | 0.00 |
| 38 | 12/03 | 11:00 | 44 | 24 | 47 | 30.29 | 310 | 1 | 0.00 |
| 39 | 12/03 | 10:00 | 39 | 25 | 58 | 30.31 | 310 | 0 | 0.00 |
| 40 | 12/03 | 09:00 | 33 | 26 | 76 | 30.30 | 310 | 0 | 0.00 |
| 41 | 12/03 | 08:00 | 30 | 26 | 85 | 30.29 | 310 | 0 | 0.00 |
| 42 | 12/03 | 07:00 | 29 | 25 | 86 | 30.28 | 310 | 0 | 0.00 |
| 43 | 12/03 | 06:00 | 29 | 25 | 85 | 30.28 | 310 | 0 | 0.00 |
| 44 | 12/03 | 05:00 | 29 | 24 | 84 | 30.25 | 310 | 1 | 0.00 |
| 45 | 12/03 | 04:00 | 29 | 24 | 84 | 30.25 | 310 | 1 | 0.00 |
| 46 | 12/03 | 03:00 | 29 | 24 | 82 | 30.26 | 310 | 1 | 0.00 |
| 47 | 12/03 | 02:00 | 30 | 23 | 78 | 30.26 | 310 | 0 | 0.00 |
| 48 | 12/03 | 01:00 | 30 | 23 | 78 | 30.26 | 310 | 0 | 0.00 |
| 49 | 12/03 | 24:00 | 30 | 23 | 78 | 30.27 | 310 | 0 | 0.00 |
| 50 | 12/02 | 23:00 | 30 | 23 | 76 | 30.28 | 310 | 0 | 0.00 |
| 51 | 12/02 | 22:00 | 31 | 23 | 74 | 30.30 | 310 | 1 | 0.00 |
| 52 | 12/02 | 21:00 | 32 | 22 | 68 | 30.30 | 310 | 0 | 0.00 |
| 53 | 12/02 | 20:00 | 33 | 22 | 65 | 30.31 | 310 | 0 | 0.00 |
| 54 | 12/02 | 19:00 | 35 | 20 | 56 | 30.32 | 310 | 0 | 0.00 |
| 55 | 12/02 | 18:00 | 37 | 20 | 50 | 30.32 | 310 | 0 | 0.00 |
| 56 | 12/02 | 17:00 | 39 | 18 | 43 | 30.32 | 310 | 0 | 0.00 |
| 57 | 12/02 | 16:00 | 44 | 17 | 34 | 30.31 | 310 | 1 | 0.00 |
| 58 | 12/02 | 15:00 | 45 | 15 | 30 | 30.32 | 270 | 4 | 0.00 |
| 59 | 12/02 | 14:00 | 44 | 14 | 30 | 30.33 | 290 | 2 | 0.00 |
| 60 | 12/02 | 13:00 | 43 | 17 | 36 | 30.36 | 290 | 7 | 0.00 |
| 61 | 12/02 | 12:00 | 40 | 16 | 38 | 30.38 | 290 | 6 | 0.00 |
| 62 | 12/02 | 11:00 | 38 | 16 | 42 | 30.40 | 330 | 6 | 0.00 |
| 63 | 12/02 | 10:00 | 34 | 15 | 47 | 30.41 | 10 | 4 | 0.00 |
| 64 | 12/02 | 09:00 | 30 | 17 | 60 | 30.41 | 290 | 6 | 0.00 |
| 65 | 12/02 | 08:00 | 27 | 18 | 69 | 30.41 | 310 | 0 | 0.00 |
| 66 | 12/02 | 07:00 | 26 | 16 | 68 | 30.40 | 310 | 2 | 0.00 |
| 67 | 12/02 | 06:00 | 25 | 15 | 68 | 30.39 | 310 | 2 | 0.00 |
| 68 | 12/02 | 05:00 | 26 | 15 | 64 | 30.39 | 310 | 2 | 0.00 |
| 69 | 12/02 | 04:00 | 26 | 14 | 61 | 30.39 | 300 | 0 | 0.00 |